Time;durP1;ratioP1;P1;durP2;ratioP2;P2;SDS_P1;SDS_P2;PMS_P1;PMS_P2;Temp;Humidity;BMP_temperature;BMP_pressure;BME280_temperature;BME280_humidity;BME280_pressure;Samples;Min_cycle;Max_cycle;Signal;HPM_P1;HPM_P2
2022/08/05 00:01:43;;;;;;;71.78;68.22;;;23.00;99.90;;;;;;5015814;28;20213;-81
2022/08/05 00:04:09;;;;;;;70.63;67.15;;;23.00;99.90;;;;;;4998183;28;20206;-81
2022/08/05 00:06:35;;;;;;;64.40;61.15;;;23.10;99.90;;;;;;5015677;28;20175;-82
2022/08/05 00:09:02;;;;;;;51.38;48.40;;;23.10;99.90;;;;;;5015066;28;20528;-83
2022/08/05 00:11:28;;;;;;;61.58;58.53;;;23.10;99.90;;;;;;5015819;28;20645;-81
2022/08/05 00:13:54;;;;;;;64.30;61.03;;;23.10;99.90;;;;;;4999085;28;20223;-82
2022/08/05 00:16:20;;;;;;;59.80;56.92;;;23.10;99.90;;;;;;5016198;28;20666;-82
2022/08/05 00:18:47;;;;;;;46.25;43.92;;;23.20;99.90;;;;;;4998426;28;20184;-82
2022/08/05 00:21:15;;;;;;;45.35;43.05;;;23.20;99.90;;;;;;5003428;28;20203;-81
2022/08/05 00:23:43;;;;;;;46.17;43.88;;;23.10;99.90;;;;;;5004959;28;20211;-82
2022/08/05 00:26:10;;;;;;;40.30;38.28;;;23.10;99.90;;;;;;5002562;28;20176;-82
2022/08/05 00:28:38;;;;;;;44.08;41.65;;;23.00;99.90;;;;;;5001411;28;20186;-82
2022/08/05 00:31:04;;;;;;;38.67;36.65;;;22.90;99.90;;;;;;5023136;28;20622;-81
2022/08/05 00:33:32;;;;;;;37.42;35.55;;;22.90;99.90;;;;;;5022643;28;20294;-81
2022/08/05 00:35:58;;;;;;;28.88;27.30;;;22.90;99.90;;;;;;5016173;28;20188;-82
2022/08/05 00:38:24;;;;;;;30.40;28.83;;;23.00;99.90;;;;;;5002993;28;20191;-81
2022/08/05 00:40:55;;;;;;;28.00;26.58;;;23.00;99.90;;;;;;4999172;28;20702;-82
2022/08/05 00:43:22;;;;;;;35.15;33.30;;;22.90;99.90;;;;;;5016608;28;20261;-81
2022/08/05 00:45:49;;;;;;;39.25;37.17;;;22.70;99.90;;;;;;5016644;28;20183;-81
2022/08/05 00:48:18;;;;;;;60.25;57.13;;;22.60;99.90;;;;;;5015115;28;20246;-80
2022/08/05 00:50:46;;;;;;;68.88;65.47;;;22.60;99.90;;;;;;4997976;28;20279;-80
2022/08/05 00:53:16;;;;;;;85.20;80.93;;;22.50;99.90;;;;;;4998242;28;20208;-80
2022/08/05 00:55:43;;;;;;;86.53;82.32;;;22.40;99.90;;;;;;4999398;28;20218;-80
2022/08/05 00:58:13;;;;;;;76.43;72.47;;;22.40;99.90;;;;;;5001031;28;20719;-80
2022/08/05 01:00:40;;;;;;;64.97;61.78;;;22.30;99.90;;;;;;5001955;28;20230;-80
2022/08/05 01:03:06;;;;;;;27.95;26.52;;;22.20;99.90;;;;;;4999650;28;20191;-82
2022/08/05 01:05:32;;;;;;;26.88;25.23;;;22.20;99.90;;;;;;4999157;28;20191;-82
2022/08/05 01:07:57;;;;;;;22.33;21.08;;;22.20;99.90;;;;;;5015970;28;20175;-81
2022/08/05 01:10:29;;;;;;;31.20;29.63;;;22.10;99.90;;;;;;5018970;28;20535;-79
2022/08/05 01:13:05;;;;;;;56.05;53.15;;;22.20;99.90;;;;;;4999160;28;20195;-79
2022/08/05 01:15:41;;;;;;;54.03;51.08;;;22.20;99.90;;;;;;5021068;28;20187;-79
2022/08/05 01:18:14;;;;;;;70.05;66.47;;;22.20;99.90;;;;;;5002117;28;20194;-82
2022/08/05 01:21:11;;;;;;;72.40;68.78;;;22.20;99.90;;;;;;5003387;28;20298;-82
2022/08/05 01:24:01;;;;;;;74.30;70.63;;;22.20;99.90;;;;;;5016005;23;20274;-85
2022/08/05 01:26:29;;;;;;;80.43;75.78;;;22.20;99.90;;;;;;5023577;28;20198;-84
2022/08/05 01:29:00;;;;;;;68.82;65.30;;;22.20;99.90;;;;;;5016801;28;20203;-85
2022/08/05 01:31:40;;;;;;;61.22;58.17;;;22.10;99.90;;;;;;5018788;28;20233;-85
2022/08/05 01:34:10;;;;;;;75.85;72.13;;;22.20;99.90;;;;;;5041689;28;20245;-85
2022/08/05 01:36:46;;;;;;;61.78;58.72;;;22.10;99.90;;;;;;5025841;28;20190;-86
2022/08/05 01:39:13;;;;;;;41.75;39.50;;;22.10;99.90;;;;;;5023579;28;20178;-86
2022/08/05 01:41:41;;;;;;;60.47;57.22;;;22.10;99.90;;;;;;5040851;28;20709;-86
2022/08/05 01:44:08;;;;;;;39.55;37.38;;;22.00;99.90;;;;;;5022479;28;20199;-85
2022/08/05 01:46:35;;;;;;;46.67;43.95;;;22.00;99.90;;;;;;5022856;28;20663;-85
2022/08/05 01:49:03;;;;;;;129.77;123.47;;;21.80;99.90;;;;;;5041044;28;20183;-85
2022/08/05 01:51:35;;;;;;;116.13;110.32;;;21.70;99.90;;;;;;5022737;28;20214;-86
2022/08/05 01:54:04;;;;;;;114.55;108.93;;;21.60;99.90;;;;;;5025163;28;20198;-85
2022/08/05 01:56:33;;;;;;;100.53;95.60;;;21.60;99.90;;;;;;5042250;28;20186;-85
2022/08/05 01:59:06;;;;;;;83.88;79.22;;;21.60;99.90;;;;;;5040839;28;20183;-86
2022/08/05 02:01:34;;;;;;;46.33;43.97;;;21.60;99.90;;;;;;5040721;28;20198;-86
2022/08/05 02:04:03;;;;;;;44.90;42.45;;;21.70;99.90;;;;;;5021763;28;20253;-86
2022/08/05 02:06:28;;;;;;;51.13;48.38;;;21.80;99.90;;;;;;5031518;28;20179;-85
2022/08/05 02:08:55;;;;;;;38.10;36.20;;;21.70;99.90;;;;;;5022864;28;20269;-86
2022/08/05 02:11:22;;;;;;;37.60;35.45;;;21.70;99.90;;;;;;5023258;28;20187;-86
2022/08/05 02:14:01;;;;;;;34.78;32.67;;;21.80;99.90;;;;;;5022192;28;20205;-86
2022/08/05 02:16:50;;;;;;;39.28;37.13;;;21.80;99.90;;;;;;5039112;28;20221;-84
2022/08/05 02:19:37;;;;;;;30.83;29.08;;;21.80;99.90;;;;;;5026670;28;20191;-86
2022/08/05 02:22:20;;;;;;;21.65;20.48;;;21.70;99.90;;;;;;5025294;28;20218;-86
2022/08/05 02:24:50;;;;;;;20.48;19.27;;;21.70;99.90;;;;;;5025489;28;20217;-85
2022/08/05 02:27:18;;;;;;;20.88;19.75;;;21.80;99.90;;;;;;5020631;28;20179;-85
2022/08/05 02:29:48;;;;;;;26.13;24.55;;;21.80;99.90;;;;;;5020299;28;20190;-85
2022/08/05 02:32:19;;;;;;;22.92;21.70;;;21.80;99.90;;;;;;5021480;28;20581;-85
2022/08/05 02:34:45;;;;;;;22.85;21.63;;;21.80;99.90;;;;;;5020150;28;20706;-85
2022/08/05 02:37:12;;;;;;;19.40;18.33;;;21.80;99.90;;;;;;5018803;28;20175;-85
2022/08/05 02:39:40;;;;;;;22.48;21.05;;;21.90;99.90;;;;;;5019667;28;20723;-85
2022/08/05 02:42:08;;;;;;;31.25;29.63;;;21.90;99.90;;;;;;5025111;28;20194;-85
2022/08/05 02:44:37;;;;;;;23.33;21.98;;;21.90;99.90;;;;;;5041594;28;20195;-85
2022/08/05 02:47:08;;;;;;;22.20;20.75;;;21.80;99.90;;;;;;5036391;28;20195;-85
2022/08/05 02:49:41;;;;;;;24.25;22.95;;;21.80;99.90;;;;;;5020234;28;20336;-86
2022/08/05 02:52:16;;;;;;;22.42;21.23;;;21.90;99.90;;;;;;5018649;28;20182;-85
2022/08/05 02:54:44;;;;;;;22.83;21.42;;;21.90;99.90;;;;;;5020654;28;20241;-85
2022/08/05 02:57:14;;;;;;;22.55;21.45;;;21.80;99.90;;;;;;5019903;28;20179;-86
2022/08/05 02:59:42;;;;;;;22.20;21.00;;;21.80;99.90;;;;;;5022747;28;20217;-85
2022/08/05 03:02:10;;;;;;;22.00;20.83;;;21.80;99.90;;;;;;5040622;28;20194;-85
2022/08/05 03:04:37;;;;;;;22.20;20.90;;;21.80;99.90;;;;;;5025397;28;20199;-86
2022/08/05 03:07:03;;;;;;;16.50;15.48;;;21.70;99.90;;;;;;5021285;28;20186;-85
2022/08/05 03:09:29;;;;;;;13.60;12.82;;;21.60;99.90;;;;;;5021722;28;20584;-85
2022/08/05 03:11:55;;;;;;;18.10;17.05;;;21.50;99.90;;;;;;5022924;28;20175;-86
2022/08/05 03:14:21;;;;;;;21.45;20.13;;;21.50;99.90;;;;;;5021333;28;20218;-86
2022/08/05 03:16:47;;;;;;;25.02;23.67;;;21.40;99.90;;;;;;5020364;28;20179;-85
2022/08/05 03:19:13;;;;;;;28.23;26.55;;;21.40;99.90;;;;;;5019483;28;20244;-86
2022/08/05 03:21:40;;;;;;;29.15;27.52;;;21.40;99.90;;;;;;5019400;28;20671;-85
2022/08/05 03:24:07;;;;;;;26.55;25.08;;;21.40;99.90;;;;;;5018928;28;20215;-85
2022/08/05 03:26:32;;;;;;;27.38;25.52;;;21.40;99.90;;;;;;5020147;28;20179;-85
2022/08/05 03:28:59;;;;;;;28.67;27.25;;;21.40;99.90;;;;;;5050755;28;20175;-84
2022/08/05 03:31:26;;;;;;;33.22;31.20;;;21.40;99.90;;;;;;5040700;28;20170;-84
2022/08/05 03:33:53;;;;;;;30.17;28.63;;;21.40;99.90;;;;;;5019581;28;20218;-84
2022/08/05 03:36:18;;;;;;;33.15;31.40;;;21.30;99.90;;;;;;5016249;28;20538;-86
2022/08/05 03:38:44;;;;;;;29.45;27.05;;;21.30;99.90;;;;;;5019872;28;20225;-85
2022/08/05 03:41:10;;;;;;;35.00;32.92;;;21.20;99.90;;;;;;5021330;28;20650;-86
2022/08/05 03:43:36;;;;;;;35.63;33.63;;;21.20;99.90;;;;;;5021818;28;20198;-86
2022/08/05 03:46:03;;;;;;;42.35;40.08;;;21.20;99.90;;;;;;5037604;28;20629;-85
2022/08/05 03:48:30;;;;;;;59.97;56.92;;;21.30;99.90;;;;;;5019318;28;20269;-85
2022/08/05 03:51:27;;;;;;;76.10;72.10;;;21.30;99.90;;;;;;5020089;28;20183;-85
2022/08/05 03:54:07;;;;;;;89.03;84.50;;;21.20;99.90;;;;;;5026286;28;20207;-85
2022/08/05 03:56:41;;;;;;;153.57;145.85;;;21.20;99.90;;;;;;5040041;28;20183;-86
2022/08/05 03:59:13;;;;;;;176.63;167.80;;;21.10;99.90;;;;;;5019860;28;20228;-86
2022/08/05 04:01:45;;;;;;;189.05;179.40;;;21.10;99.90;;;;;;5019927;28;20218;-85
2022/08/05 04:04:13;;;;;;;195.00;185.30;;;21.00;99.90;;;;;;5021766;28;20206;-85
2022/08/05 04:06:40;;;;;;;180.30;171.30;;;20.90;99.90;;;;;;5040773;28;20179;-85
2022/08/05 04:09:07;;;;;;;170.93;162.27;;;21.00;99.90;;;;;;5038920;28;20562;-85
2022/08/05 04:11:35;;;;;;;130.60;123.50;;;20.90;99.90;;;;;;5038046;28;20232;-86
2022/08/05 04:14:01;;;;;;;116.82;110.57;;;20.80;99.90;;;;;;5038004;28;20203;-85
2022/08/05 04:16:27;;;;;;;135.30;128.10;;;20.80;99.90;;;;;;5029156;28;20201;-85
2022/08/05 04:18:53;;;;;;;119.00;112.82;;;20.80;99.90;;;;;;5039288;28;20266;-85
2022/08/05 04:21:19;;;;;;;89.28;84.75;;;20.70;99.90;;;;;;5032584;28;20222;-85
2022/08/05 04:23:45;;;;;;;76.97;73.07;;;20.80;99.90;;;;;;5020510;28;20215;-85
2022/08/05 04:26:12;;;;;;;88.30;83.75;;;20.80;99.90;;;;;;5021523;28;20186;-85
2022/08/05 04:28:38;;;;;;;32.13;30.15;;;20.90;99.90;;;;;;5020320;28;20185;-85
2022/08/05 04:31:05;;;;;;;36.67;34.58;;;20.80;99.90;;;;;;5034507;28;20691;-85
2022/08/05 04:33:31;;;;;;;46.85;43.92;;;20.80;99.90;;;;;;5029999;28;20207;-85
2022/08/05 04:35:57;;;;;;;45.80;43.03;;;20.90;99.90;;;;;;5041400;28;20529;-83
2022/08/05 04:38:23;;;;;;;64.95;61.60;;;21.00;99.90;;;;;;5025453;28;20183;-85
2022/08/05 04:40:49;;;;;;;94.65;89.38;;;21.00;99.90;;;;;;5016232;28;20240;-84
2022/08/05 04:43:15;;;;;;;248.25;235.73;;;21.10;99.90;;;;;;5019683;28;20273;-84
2022/08/05 04:45:41;;;;;;;278.30;264.15;;;21.20;99.90;;;;;;5019499;28;20265;-85
2022/08/05 04:48:09;;;;;;;371.60;352.00;;;21.30;99.90;;;;;;5023171;28;20726;-85
2022/08/05 04:50:46;;;;;;;386.80;365.58;;;21.40;99.90;;;;;;5045273;28;20709;-84
2022/08/05 04:53:13;;;;;;;291.38;275.65;;;21.40;99.90;;;;;;5043247;28;20182;-84
2022/08/05 04:55:40;;;;;;;134.15;126.68;;;21.50;99.90;;;;;;5023225;28;20572;-85
2022/08/05 04:58:08;;;;;;;68.72;64.72;;;21.70;99.90;;;;;;5021480;28;20183;-85
2022/08/05 05:00:35;;;;;;;101.13;95.90;;;21.80;99.90;;;;;;5022108;28;20240;-84
2022/08/05 05:03:02;;;;;;;193.80;183.82;;;21.80;99.90;;;;;;5022524;28;20250;-85
2022/08/05 05:05:28;;;;;;;274.35;260.63;;;21.90;99.90;;;;;;5020352;28;20194;-85
2022/08/05 05:07:58;;;;;;;244.50;232.30;;;22.00;99.90;;;;;;5019203;28;20179;-84
2022/08/05 05:10:24;;;;;;;221.07;209.90;;;22.10;99.90;;;;;;5021086;28;20177;-85
2022/08/05 05:12:50;;;;;;;178.90;169.82;;;22.20;99.90;;;;;;5020790;28;20400;-85
2022/08/05 05:15:16;;;;;;;142.57;135.10;;;22.20;99.90;;;;;;5019899;28;20644;-85
2022/08/05 05:17:42;;;;;;;126.70;120.38;;;22.30;99.90;;;;;;5021507;28;20666;-85
2022/08/05 05:20:11;;;;;;;126.35;120.05;;;22.40;99.90;;;;;;5022596;28;20648;-85
2022/08/05 05:22:38;;;;;;;99.70;94.47;;;22.50;99.90;;;;;;5021051;28;20175;-86
2022/08/05 05:25:05;;;;;;;80.78;75.93;;;22.80;99.90;;;;;;5023074;28;20221;-85
2022/08/05 05:27:33;;;;;;;67.05;63.53;;;23.20;99.90;;;;;;5021027;28;20187;-86
2022/08/05 05:29:59;;;;;;;18.60;17.50;;;23.70;99.90;;;;;;5040847;28;20186;-86
2022/08/05 05:32:25;;;;;;;25.80;24.23;;;24.20;99.90;;;;;;5021547;28;20187;-86
2022/08/05 05:34:51;;;;;;;18.27;16.85;;;24.60;99.90;;;;;;5021221;28;20202;-85
2022/08/05 05:37:17;;;;;;;11.65;9.35;;;25.10;99.90;;;;;;5020296;28;20183;-86
2022/08/05 05:39:43;;;;;;;17.83;16.25;;;25.30;99.90;;;;;;5031377;28;20562;-86
2022/08/05 05:42:09;;;;;;;20.23;18.80;;;25.40;99.90;;;;;;5022698;28;20187;-86
2022/08/05 05:44:35;;;;;;;17.20;15.48;;;25.50;99.90;;;;;;5023782;28;20258;-86
2022/08/05 05:47:01;;;;;;;15.05;13.88;;;25.30;99.90;;;;;;5027528;28;20187;-86
2022/08/05 05:49:27;;;;;;;12.07;10.00;;;25.60;99.90;;;;;;5024794;28;20213;-85
2022/08/05 05:51:53;;;;;;;12.25;11.25;;;25.70;99.90;;;;;;5042325;28;20190;-85
2022/08/05 05:54:20;;;;;;;14.23;10.02;;;26.10;99.90;;;;;;5040506;28;20257;-83
2022/08/05 05:56:46;;;;;;;18.23;16.42;;;26.70;99.90;;;;;;5019434;28;20217;-84
2022/08/05 05:59:12;;;;;;;8.73;7.82;;;27.40;99.90;;;;;;5019374;28;20237;-85
2022/08/05 06:01:39;;;;;;;10.73;9.07;;;27.80;99.90;;;;;;5022022;28;20186;-85
2022/08/05 06:04:08;;;;;;;15.80;8.63;;;28.20;99.90;;;;;;5019476;28;20195;-85
2022/08/05 06:06:35;;;;;;;17.45;15.68;;;28.50;99.90;;;;;;5031295;28;20274;-85
2022/08/05 06:09:01;;;;;;;15.77;12.73;;;28.70;99.90;;;;;;5041010;28;20190;-83
2022/08/05 06:11:27;;;;;;;13.45;11.15;;;28.90;99.90;;;;;;5028695;28;20219;-84
2022/08/05 06:13:53;;;;;;;12.10;8.85;;;28.90;99.90;;;;;;5040658;28;20186;-84
2022/08/05 06:16:19;;;;;;;12.32;11.15;;;28.80;99.90;;;;;;5033862;28;20223;-86
2022/08/05 06:18:45;;;;;;;12.32;11.25;;;28.80;99.90;;;;;;5021936;28;20229;-85
2022/08/05 06:21:11;;;;;;;11.98;10.45;;;28.80;99.90;;;;;;5018629;28;20557;-84
2022/08/05 06:23:37;;;;;;;10.52;9.60;;;28.80;99.90;;;;;;5016818;28;20695;-84
2022/08/05 06:26:03;;;;;;;14.15;10.50;;;28.90;99.90;;;;;;5017543;28;20186;-85
2022/08/05 06:28:29;;;;;;;12.13;9.93;;;29.10;99.90;;;;;;5015893;28;20190;-85
2022/08/05 06:30:55;;;;;;;11.93;10.05;;;29.20;99.90;;;;;;5016676;28;20211;-84
2022/08/05 06:33:21;;;;;;;13.27;11.93;;;29.30;99.90;;;;;;5034418;28;20530;-84
2022/08/05 06:35:47;;;;;;;14.52;11.85;;;29.10;99.90;;;;;;5034907;28;20225;-84
2022/08/05 06:38:12;;;;;;;13.07;11.80;;;28.80;99.90;;;;;;5017722;28;20179;-85
2022/08/05 06:40:41;;;;;;;8.18;7.47;;;28.50;99.90;;;;;;5021366;28;20255;-85
2022/08/05 06:43:07;;;;;;;12.57;11.38;;;28.30;99.90;;;;;;5022242;28;20540;-85
2022/08/05 06:45:34;;;;;;;16.55;15.13;;;27.90;99.90;;;;;;5023158;28;20205;-85
2022/08/05 06:47:59;;;;;;;13.68;12.60;;;28.10;99.90;;;;;;5029277;28;20239;-84
2022/08/05 06:50:25;;;;;;;12.75;11.98;;;28.80;99.90;;;;;;5043137;28;20207;-85
2022/08/05 06:52:52;;;;;;;13.40;9.27;;;29.40;99.90;;;;;;5018450;28;20183;-85
2022/08/05 06:55:18;;;;;;;11.25;10.35;;;29.80;99.50;;;;;;5035112;28;20203;-85
2022/08/05 06:57:44;;;;;;;15.35;14.27;;;30.10;98.40;;;;;;5017396;28;20187;-85
2022/08/05 07:00:10;;;;;;;33.78;31.42;;;30.50;97.50;;;;;;5017389;28;20218;-83
2022/08/05 07:02:46;;;;;;;72.03;67.97;;;30.90;96.20;;;;;;5036204;28;20185;-83
2022/08/05 07:05:13;;;;;;;102.72;97.47;;;31.50;95.20;;;;;;5018356;28;20293;-85
2022/08/05 07:07:39;;;;;;;89.18;84.68;;;31.80;93.70;;;;;;5016924;28;20598;-83
2022/08/05 07:10:07;;;;;;;64.00;60.50;;;31.80;93.20;;;;;;5017167;28;20213;-83
2022/08/05 07:18:03;;;;;;;48.53;45.80;;;31.40;92.90;;;;;;5034044;28;20682;-85
2022/08/05 07:20:28;;;;;;;106.80;101.40;;;31.30;92.20;;;;;;5017460;28;20179;-85
2022/08/05 07:22:54;;;;;;;133.38;126.38;;;30.70;93.10;;;;;;5017783;28;20197;-85
2022/08/05 07:25:20;;;;;;;107.43;102.15;;;30.60;93.70;;;;;;5045476;23;20255;-80
2022/08/05 07:27:47;;;;;;;82.10;77.72;;;30.70;92.80;;;;;;5014640;28;20183;-78
2022/08/05 07:30:12;;;;;;;51.22;48.60;;;31.00;91.90;;;;;;5011212;28;20306;-79
2022/08/05 07:32:38;;;;;;;48.00;45.55;;;30.80;91.30;;;;;;5013409;28;20237;-79
2022/08/05 07:35:08;;;;;;;72.82;68.93;;;30.60;91.40;;;;;;5013357;28;20267;-80
2022/08/05 07:37:34;;;;;;;79.28;75.13;;;30.70;91.50;;;;;;5014526;28;20179;-80
2022/08/05 07:40:01;;;;;;;70.15;66.53;;;30.80;91.30;;;;;;5016017;28;20680;-78
2022/08/05 07:42:26;;;;;;;39.50;37.30;;;31.10;90.90;;;;;;5014597;28;20183;-79
2022/08/05 07:44:52;;;;;;;54.95;52.15;;;31.00;90.40;;;;;;5014572;28;20196;-79
2022/08/05 07:47:18;;;;;;;79.85;75.22;;;30.70;91.10;;;;;;5016285;28;20314;-80
2022/08/05 07:49:44;;;;;;;82.60;78.38;;;30.30;91.30;;;;;;5015667;28;20207;-80
2022/08/05 07:52:10;;;;;;;91.57;86.65;;;30.30;91.30;;;;;;5015221;28;20172;-80
2022/08/05 07:54:35;;;;;;;87.47;82.95;;;30.30;91.40;;;;;;5014421;28;20200;-80
2022/08/05 07:57:03;;;;;;;72.53;68.75;;;30.60;90.90;;;;;;5015213;28;20187;-80
2022/08/05 07:59:29;;;;;;;20.17;19.10;;;30.70;90.50;;;;;;5015941;28;20175;-78
2022/08/05 08:01:55;;;;;;;25.50;23.77;;;30.70;88.70;;;;;;5024429;28;20190;-79
2022/08/05 08:04:22;;;;;;;9.90;9.15;;;30.70;88.40;;;;;;5016324;28;20647;-80
2022/08/05 08:06:47;;;;;;;6.50;6.03;;;31.10;86.10;;;;;;5015966;28;20186;-80
2022/08/05 08:09:13;;;;;;;7.43;7.03;;;31.20;84.20;;;;;;5014699;28;20176;-79
2022/08/05 08:11:41;;;;;;;13.82;13.15;;;31.40;84.50;;;;;;5015994;28;20187;-80
2022/08/05 08:14:07;;;;;;;17.58;16.67;;;31.40;82.90;;;;;;5013727;28;20191;-80
2022/08/05 08:16:32;;;;;;;23.70;22.42;;;31.40;82.30;;;;;;5013686;28;20175;-80
2022/08/05 08:18:58;;;;;;;23.13;21.67;;;31.50;80.80;;;;;;5014246;28;20175;-79
2022/08/05 08:21:24;;;;;;;30.25;28.50;;;31.60;82.00;;;;;;5020772;28;20234;-79
2022/08/05 08:23:50;;;;;;;39.88;37.88;;;31.90;80.10;;;;;;5031820;28;20215;-80
2022/08/05 08:26:16;;;;;;;38.47;36.65;;;31.80;79.80;;;;;;5021647;28;20191;-80
2022/08/05 08:28:42;;;;;;;39.53;37.50;;;31.70;79.30;;;;;;5020527;28;20179;-80
2022/08/05 08:31:08;;;;;;;47.42;44.42;;;31.80;79.90;;;;;;5020732;28;20322;-80
2022/08/05 08:33:34;;;;;;;43.30;41.03;;;31.90;78.10;;;;;;5023115;28;20180;-79
2022/08/05 08:36:00;;;;;;;42.25;40.05;;;31.80;77.80;;;;;;5020884;28;20184;-80
2022/08/05 08:38:26;;;;;;;29.27;27.73;;;31.50;79.30;;;;;;5019247;28;20182;-78
2022/08/05 08:40:52;;;;;;;36.38;34.60;;;31.50;80.00;;;;;;5018889;28;20283;-79
2022/08/05 08:43:18;;;;;;;42.13;40.10;;;31.60;79.10;;;;;;5017933;28;20668;-78
2022/08/05 08:45:48;;;;;;;36.60;34.72;;;31.90;78.20;;;;;;5018279;28;20710;-79
2022/08/05 08:48:15;;;;;;;42.95;40.83;;;31.90;77.40;;;;;;5018258;28;20218;-80
2022/08/05 08:50:42;;;;;;;31.50;29.95;;;32.10;77.00;;;;;;5022656;28;20638;-79
2022/08/05 08:53:12;;;;;;;31.25;29.42;;;32.10;76.00;;;;;;5022788;28;20263;-79
2022/08/05 08:55:40;;;;;;;17.60;16.80;;;32.10;75.00;;;;;;5023085;28;20195;-79
2022/08/05 08:58:06;;;;;;;10.45;9.95;;;32.50;73.30;;;;;;5022566;28;20198;-80
2022/08/05 09:00:32;;;;;;;7.18;6.88;;;32.70;72.30;;;;;;5023606;28;20322;-81
2022/08/05 09:02:59;;;;;;;5.80;5.47;;;32.90;72.10;;;;;;5022642;28;20558;-79
2022/08/05 09:05:25;;;;;;;5.68;5.45;;;33.00;71.20;;;;;;5021868;28;20215;-77
2022/08/05 09:07:52;;;;;;;5.55;5.25;;;33.10;70.40;;;;;;5018540;28;20253;-77
2022/08/05 09:10:19;;;;;;;5.32;5.03;;;33.30;70.30;;;;;;5021700;28;20215;-78
2022/08/05 09:12:44;;;;;;;4.55;4.30;;;33.10;70.60;;;;;;5021732;28;20199;-79
2022/08/05 09:15:11;;;;;;;5.07;4.68;;;33.30;69.30;;;;;;5022137;28;20629;-79
2022/08/05 09:17:39;;;;;;;7.10;6.60;;;33.40;68.70;;;;;;5019013;28;20206;-77
2022/08/05 09:20:06;;;;;;;17.08;16.23;;;33.60;68.20;;;;;;5019741;28;20183;-78
2022/08/05 09:23:10;;;;;;;44.72;42.60;;;33.90;66.60;;;;;;5020124;28;20557;-79
2022/08/05 09:25:38;;;;;;;66.47;63.25;;;34.00;65.40;;;;;;5020483;28;20245;-79
2022/08/05 09:28:26;;;;;;;115.20;109.80;;;34.00;65.10;;;;;;5019640;28;20211;-79
2022/08/05 09:30:54;;;;;;;254.93;242.32;;;34.60;63.10;;;;;;5020498;28;20211;-79
2022/08/05 09:33:21;;;;;;;397.70;376.27;;;34.90;62.50;;;;;;5018983;28;20186;-79
2022/08/05 09:36:04;;;;;;;445.38;420.95;;;35.30;60.80;;;;;;5017320;28;20234;-79
2022/08/05 09:38:31;;;;;;;526.15;495.55;;;35.60;60.20;;;;;;5016843;28;20184;-79
2022/08/05 09:41:06;;;;;;;480.00;452.83;;;36.00;58.10;;;;;;5016940;28;20183;-80
2022/08/05 09:43:34;;;;;;;508.35;479.02;;;35.90;56.90;;;;;;5016344;28;20660;-80
2022/08/05 09:46:00;;;;;;;466.80;440.25;;;36.20;57.60;;;;;;5017605;28;20184;-79
2022/08/05 09:48:31;;;;;;;425.85;402.10;;;36.50;56.90;;;;;;5016350;28;20191;-78
2022/08/05 09:51:07;;;;;;;484.50;457.00;;;35.90;56.50;;;;;;5016293;28;20680;-79
2022/08/05 09:53:50;;;;;;;475.92;448.80;;;35.30;57.50;;;;;;5015790;28;20179;-79
2022/08/05 09:56:27;;;;;;;486.08;458.40;;;35.10;57.30;;;;;;5017106;28;20622;-79
2022/08/05 09:59:08;;;;;;;460.63;434.48;;;35.60;56.80;;;;;;5016252;28;20706;-79
2022/08/05 10:01:36;;;;;;;321.67;304.90;;;36.60;55.70;;;;;;5021423;28;20195;-79
2022/08/05 10:04:04;;;;;;;201.38;191.40;;;36.80;54.50;;;;;;5017679;28;20199;-77
2022/08/05 10:06:30;;;;;;;126.97;120.85;;;36.90;54.30;;;;;;5021864;28;20195;-78
2022/08/05 10:09:17;;;;;;;119.70;113.85;;;36.70;53.40;;;;;;5016530;28;20179;-79
2022/08/05 10:11:44;;;;;;;117.82;112.25;;;37.10;52.60;;;;;;5015975;28;20230;-79
2022/08/05 10:14:20;;;;;;;109.70;104.45;;;37.20;51.90;;;;;;5016037;28;20196;-79
2022/08/05 10:16:46;;;;;;;105.15;100.15;;;37.20;51.50;;;;;;5015836;28;20190;-79
2022/08/05 10:19:12;;;;;;;111.90;106.63;;;37.20;51.00;;;;;;5016011;28;20183;-79
2022/08/05 10:21:38;;;;;;;96.50;91.90;;;37.00;50.70;;;;;;5015639;28;20183;-79
2022/08/05 10:24:06;;;;;;;106.38;101.32;;;36.50;50.80;;;;;;5014851;28;20637;-80
2022/08/05 10:26:32;;;;;;;109.65;103.78;;;37.10;50.50;;;;;;5015777;28;20183;-79
2022/08/05 10:28:57;;;;;;;99.03;93.72;;;37.30;51.70;;;;;;5016595;28;20172;-80
2022/08/05 10:31:23;;;;;;;105.95;100.93;;;37.80;50.50;;;;;;5015578;28;20587;-78
2022/08/05 10:33:49;;;;;;;121.32;115.60;;;37.40;50.60;;;;;;5014890;28;20191;-80
2022/08/05 10:36:15;;;;;;;97.60;92.60;;;36.60;51.30;;;;;;5016443;28;20183;-79
2022/08/05 10:38:45;;;;;;;112.30;107.00;;;36.00;53.20;;;;;;5016820;28;20207;-80
2022/08/05 10:41:29;;;;;;;101.47;96.60;;;36.40;52.20;;;;;;5016264;28;20556;-80
2022/08/05 10:44:01;;;;;;;123.13;117.30;;;36.50;51.50;;;;;;5023646;28;20218;-78
2022/08/05 10:46:49;;;;;;;118.28;112.68;;;37.10;50.80;;;;;;5019642;28;20214;-80
2022/08/05 10:49:15;;;;;;;131.82;125.50;;;37.40;51.10;;;;;;5017563;28;20179;-80
2022/08/05 10:51:49;;;;;;;136.40;129.88;;;38.30;50.10;;;;;;5018477;28;20233;-78
2022/08/05 10:54:16;;;;;;;47.83;45.53;;;38.70;48.50;;;;;;5022397;28;20200;-80
2022/08/05 10:56:47;;;;;;;12.70;12.10;;;39.30;46.00;;;;;;5016370;28;20238;-80
2022/08/05 10:59:25;;;;;;;9.63;9.23;;;39.50;45.10;;;;;;5016420;28;20211;-79
2022/08/05 11:02:12;;;;;;;7.55;7.15;;;39.00;45.30;;;;;;5022612;28;20187;-79
2022/08/05 11:04:46;;;;;;;16.75;16.00;;;38.70;45.90;;;;;;5023848;28;20207;-78
2022/08/05 11:07:16;;;;;;;11.23;10.63;;;38.20;46.60;;;;;;5021284;28;20179;-79
2022/08/05 11:09:49;;;;;;;11.90;11.30;;;38.30;46.50;;;;;;5017482;28;20715;-80
2022/08/05 11:12:35;;;;;;;8.90;8.45;;;38.50;46.70;;;;;;5015831;28;20188;-80
2022/08/05 11:15:08;;;;;;;12.15;11.55;;;38.50;46.00;;;;;;5014210;28;20529;-80
2022/08/05 11:17:37;;;;;;;6.07;5.78;;;39.30;45.60;;;;;;5013339;28;20197;-80
2022/08/05 11:20:08;;;;;;;5.47;5.25;;;39.20;45.90;;;;;;5014321;28;20184;-80
2022/08/05 11:22:42;;;;;;;6.80;6.40;;;39.30;44.80;;;;;;5014286;28;20191;-81
2022/08/05 11:25:31;;;;;;;5.50;5.20;;;39.20;45.80;;;;;;5015266;28;20594;-79
2022/08/05 11:28:11;;;;;;;9.05;8.40;;;38.90;45.00;;;;;;5014971;28;20180;-80
2022/08/05 11:31:02;;;;;;;6.55;6.00;;;39.30;46.80;;;;;;5014404;28;20211;-80
2022/08/05 11:33:27;;;;;;;4.88;4.47;;;38.90;44.40;;;;;;5014849;28;20206;-79
2022/08/05 11:36:01;;;;;;;5.55;5.35;;;39.20;44.10;;;;;;5014289;28;20175;-80
2022/08/05 11:38:43;;;;;;;4.47;4.18;;;39.70;43.60;;;;;;5013936;28;20208;-80
2022/08/05 11:41:14;;;;;;;4.13;3.92;;;40.20;42.70;;;;;;5014303;28;20198;-79
2022/08/05 11:43:53;;;;;;;6.13;5.72;;;39.70;43.10;;;;;;5015476;28;20243;-80
2022/08/05 11:46:26;;;;;;;4.45;4.20;;;39.70;43.90;;;;;;5014716;28;20197;-80
2022/08/05 11:48:53;;;;;;;4.60;4.25;;;40.40;43.70;;;;;;5014199;28;20187;-79
2022/08/05 11:51:19;;;;;;;4.00;3.60;;;40.50;43.10;;;;;;5015799;28;20324;-79
2022/08/05 11:53:45;;;;;;;2.97;2.78;;;40.90;43.00;;;;;;5014648;28;20204;-79
2022/08/05 11:56:11;;;;;;;3.45;3.25;;;40.50;42.80;;;;;;5015716;28;20184;-79
2022/08/05 11:58:39;;;;;;;4.43;4.13;;;40.60;42.20;;;;;;5012575;28;20634;-81
2022/08/05 12:01:09;;;;;;;4.85;4.30;;;40.70;41.30;;;;;;5015772;28;20207;-79
2022/08/05 12:03:45;;;;;;;3.75;2.97;;;39.70;41.80;;;;;;5015204;28;20183;-79
2022/08/05 12:06:12;;;;;;;3.83;3.63;;;40.20;42.00;;;;;;5015861;28;20552;-79
2022/08/05 12:08:43;;;;;;;2.75;2.65;;;40.30;41.60;;;;;;5013344;28;20242;-79
2022/08/05 12:11:10;;;;;;;2.72;2.63;;;40.60;41.70;;;;;;5016551;28;20211;-78
2022/08/05 12:13:37;;;;;;;5.90;2.72;;;41.70;40.80;;;;;;5017902;28;20183;-78
2022/08/05 12:16:16;;;;;;;2.50;2.30;;;41.70;40.40;;;;;;5016097;28;20275;-79
2022/08/05 12:18:43;;;;;;;3.72;2.50;;;41.30;40.60;;;;;;5014680;28;20550;-79
2022/08/05 12:21:16;;;;;;;4.60;3.60;;;41.10;39.40;;;;;;5014965;28;20179;-79
2022/08/05 12:23:53;;;;;;;3.10;2.90;;;40.70;39.70;;;;;;5013421;28;20245;-80
2022/08/05 12:26:20;;;;;;;3.85;3.08;;;40.50;40.40;;;;;;5015155;28;20195;-79
2022/08/05 12:28:46;;;;;;;3.22;3.03;;;41.00;40.90;;;;;;5021839;28;20180;-78
2022/08/05 12:31:12;;;;;;;2.47;2.38;;;40.70;41.40;;;;;;5015168;28;20215;-80
2022/08/05 12:33:38;;;;;;;3.20;3.00;;;41.10;40.80;;;;;;5013239;28;20198;-79
2022/08/05 12:36:05;;;;;;;2.97;2.85;;;40.70;40.00;;;;;;5014628;28;20556;-78
2022/08/05 12:38:31;;;;;;;3.17;2.85;;;40.60;39.40;;;;;;5013081;28;20180;-80
2022/08/05 12:40:58;;;;;;;2.92;2.83;;;40.70;39.50;;;;;;5015236;28;20184;-79